Time;durP1;ratioP1;P1;durP2;ratioP2;P2;SDS_P1;SDS_P2;PMS_P1;PMS_P2;Temp;Humidity;BMP_temperature;BMP_pressure;BME280_temperature;BME280_humidity;BME280_pressure;Samples;Min_cycle;Max_cycle;Signal;HPM_P1;HPM_P2
2021/08/05 00:01:18;;;;;;;2.87;2.67;;;;;;;18.71;70.90;99966.16;5030253;28;20415;-84
2021/08/05 00:03:43;;;;;;;4.00;3.10;;;;;;;18.67;71.23;99975.34;5033864;28;20403;-83
2021/08/05 00:06:08;;;;;;;5.40;3.30;;;;;;;18.61;71.08;99975.44;5035542;28;20423;-83
2021/08/05 00:08:34;;;;;;;3.13;2.93;;;;;;;18.60;71.41;99976.56;5035311;28;20770;-84
2021/08/05 00:11:00;;;;;;;5.00;2.87;;;;;;;18.60;71.39;99990.31;5033898;28;20454;-83
2021/08/05 00:13:25;;;;;;;5.15;3.03;;;;;;;18.57;71.49;99981.88;5034885;28;20461;-84
2021/08/05 00:15:51;;;;;;;3.10;2.90;;;;;;;18.58;71.56;99978.78;5034589;28;20403;-83
2021/08/05 00:18:16;;;;;;;3.23;2.93;;;;;;;18.57;71.50;99979.91;5034840;28;20405;-84
2021/08/05 00:20:41;;;;;;;5.03;3.00;;;;;;;18.57;71.48;99984.63;5034317;28;20457;-83
2021/08/05 00:23:06;;;;;;;4.93;3.03;;;;;;;18.57;71.56;99979.91;5038670;28;20397;-84
2021/08/05 00:25:32;;;;;;;4.10;2.83;;;;;;;18.60;71.64;99979.31;5022881;28;20891;-84
2021/08/05 00:27:57;;;;;;;2.70;2.53;;;;;;;18.62;71.43;99974.31;5033448;28;20399;-84
2021/08/05 00:30:23;;;;;;;2.90;2.70;;;;;;;18.60;71.55;99976.56;5034628;28;20395;-85
2021/08/05 00:32:48;;;;;;;4.20;2.57;;;;;;;18.60;71.56;99971.09;5033126;28;20501;-84
2021/08/05 00:35:14;;;;;;;3.27;2.87;;;;;;;18.59;71.66;99977.69;5033357;28;20518;-84
2021/08/05 00:37:39;;;;;;;4.17;2.83;;;;;;;18.62;71.82;99976.25;5034500;28;20407;-84
2021/08/05 00:40:05;;;;;;;6.67;2.80;;;;;;;18.62;71.66;99970.75;5018153;28;20417;-84
2021/08/05 00:42:31;;;;;;;4.00;2.67;;;;;;;18.53;71.77;99967.94;5033133;28;20425;-84
2021/08/05 00:44:56;;;;;;;3.70;2.95;;;;;;;18.50;71.93;99967.75;5034063;28;20422;-83
2021/08/05 00:47:22;;;;;;;4.47;3.27;;;;;;;18.48;72.00;99968.03;5034047;28;20415;-84
2021/08/05 00:49:48;;;;;;;3.23;2.93;;;;;;;18.51;71.98;99958.38;5033981;28;20398;-83
2021/08/05 00:52:13;;;;;;;3.08;2.60;;;;;;;18.52;71.71;99955.34;5033221;28;20527;-84
2021/08/05 00:54:38;;;;;;;3.30;3.00;;;;;;;18.51;71.81;99950.16;5034056;28;20406;-84
2021/08/05 00:57:04;;;;;;;5.13;3.17;;;;;;;18.47;72.17;99947.22;5034239;28;20791;-84
2021/08/05 00:59:29;;;;;;;3.07;2.87;;;;;;;18.48;72.12;99950.75;5033993;28;20961;-84
2021/08/05 01:02:02;;;;;;;3.80;2.93;;;;;;;18.50;71.87;99934.81;5030896;28;20487;-84
2021/08/05 01:04:30;;;;;;;3.42;3.13;;;;;;;18.51;72.13;99942.72;5024546;28;20414;-83
2021/08/05 01:07:14;;;;;;;3.30;3.10;;;;;;;18.45;72.53;99943.13;5033903;28;20774;-84
2021/08/05 01:09:58;;;;;;;5.15;3.05;;;;;;;18.41;72.34;99944.84;5032520;28;20399;-84
2021/08/05 01:12:35;;;;;;;2.88;2.67;;;;;;;18.32;72.82;99935.75;5031328;28;20411;-84
2021/08/05 01:15:14;;;;;;;5.07;3.20;;;;;;;18.30;72.95;99936.06;5031940;28;20770;-83
2021/08/05 01:17:46;;;;;;;3.08;2.63;;;;;;;18.31;73.02;99934.16;5033666;28;20395;-84
2021/08/05 01:20:15;;;;;;;2.60;2.50;;;;;;;18.23;73.17;99929.38;5033588;28;20485;-84
2021/08/05 01:23:05;;;;;;;3.00;2.80;;;;;;;18.29;73.19;99933.63;5031373;28;20504;-84
2021/08/05 01:25:33;;;;;;;3.13;2.80;;;;;;;18.30;73.02;99938.00;5032648;28;20496;-84
2021/08/05 01:28:01;;;;;;;4.10;2.95;;;;;;;18.29;73.18;99939.09;5033322;28;20395;-83
2021/08/05 01:30:27;;;;;;;3.90;3.27;;;;;;;18.30;73.25;99938.81;5015600;28;20778;-84
2021/08/05 01:32:55;;;;;;;3.40;3.05;;;;;;;18.34;73.33;99948.03;5031821;28;20410;-83
2021/08/05 01:35:22;;;;;;;3.10;2.90;;;;;;;18.33;73.42;99938.19;5031714;28;20477;-83
2021/08/05 01:37:48;;;;;;;3.65;3.17;;;;;;;18.28;73.69;99942.97;5029303;28;20391;-84
2021/08/05 01:40:14;;;;;;;4.45;3.15;;;;;;;18.27;73.76;99936.69;5031240;28;20498;-84
2021/08/05 01:42:40;;;;;;;3.42;3.10;;;;;;;18.30;73.97;99946.22;5031142;28;20568;-84
2021/08/05 01:45:09;;;;;;;5.28;3.00;;;;;;;18.31;73.86;99943.16;5032624;28;20403;-84
2021/08/05 01:47:37;;;;;;;6.73;3.17;;;;;;;18.31;73.79;99943.16;5032925;28;20395;-83
2021/08/05 01:50:02;;;;;;;4.82;3.33;;;;;;;18.30;73.88;99946.22;5018689;28;20759;-83
2021/08/05 01:52:28;;;;;;;4.35;3.80;;;;;;;18.27;74.03;99939.44;5011896;28;20414;-83
2021/08/05 01:54:53;;;;;;;4.73;3.00;;;;;;;18.29;74.12;99941.84;5029311;28;20411;-84
2021/08/05 01:57:18;;;;;;;3.50;3.23;;;;;;;18.24;74.17;99940.06;5031957;28;20422;-83
2021/08/05 01:59:43;;;;;;;4.23;3.70;;;;;;;18.20;74.81;99939.03;5032752;28;20410;-84
2021/08/05 02:02:09;;;;;;;5.93;3.93;;;;;;;18.21;74.61;99934.38;5031795;28;20878;-83
2021/08/05 02:05:01;;;;;;;4.90;3.65;;;;;;;18.19;74.72;99933.84;5014731;28;20442;-83
2021/08/05 02:07:39;;;;;;;4.15;3.75;;;;;;;18.20;74.92;99932.72;5042102;28;20549;-84
2021/08/05 02:10:19;;;;;;;5.32;3.50;;;;;;;18.20;74.57;99935.47;5029280;28;20407;-84
2021/08/05 02:12:48;;;;;;;4.05;3.72;;;;;;;18.19;74.84;99934.66;5026852;28;20475;-85
2021/08/05 02:15:15;;;;;;;5.93;3.47;;;;;;;18.21;74.77;99926.13;5020605;28;20887;-84
2021/08/05 02:17:43;;;;;;;4.10;3.80;;;;;;;18.20;74.59;99917.09;5031625;28;20419;-84
2021/08/05 02:20:10;;;;;;;4.15;3.50;;;;;;;18.23;74.65;99924.72;5032346;28;20403;-85
2021/08/05 02:22:39;;;;;;;4.15;3.58;;;;;;;18.24;74.78;99915.38;5038970;28;20477;-85
2021/08/05 02:25:05;;;;;;;6.65;3.60;;;;;;;18.18;74.73;99919.31;5047597;28;20469;-84
2021/08/05 02:27:30;;;;;;;4.78;3.55;;;;;;;18.14;74.88;99912.84;5031640;28;20809;-84
2021/08/05 02:29:57;;;;;;;6.60;3.30;;;;;;;18.15;75.03;99923.50;5031771;28;20494;-84
2021/08/05 02:32:23;;;;;;;5.68;4.35;;;;;;;18.15;75.19;99909.78;5032186;28;20426;-84
2021/08/05 02:34:49;;;;;;;5.17;3.73;;;;;;;18.12;75.09;99904.09;5031965;28;20505;-84
2021/08/05 02:37:14;;;;;;;4.10;3.25;;;;;;;18.12;75.01;99907.66;5031532;28;20426;-85
2021/08/05 02:39:40;;;;;;;4.10;3.40;;;;;;;18.12;74.89;99906.84;5040469;28;20398;-84
2021/08/05 02:42:05;;;;;;;3.30;3.10;;;;;;;18.11;74.57;99905.25;5034687;28;20758;-84
2021/08/05 02:44:31;;;;;;;5.70;3.47;;;;;;;18.10;74.70;99901.69;5014534;28;20720;-85
2021/08/05 02:46:59;;;;;;;4.00;3.30;;;;;;;18.07;74.72;99896.81;5030912;28;20419;-84
2021/08/05 02:49:24;;;;;;;4.63;3.15;;;;;;;18.02;74.97;99899.66;5031900;28;20391;-84
2021/08/05 02:51:50;;;;;;;4.20;3.00;;;;;;;18.00;74.82;99896.41;5030671;28;20449;-84
2021/08/05 02:54:16;;;;;;;3.83;3.22;;;;;;;17.95;75.00;99902.00;5031702;28;20927;-84
2021/08/05 02:56:42;;;;;;;4.30;3.50;;;;;;;17.95;74.97;99896.50;5031667;28;20396;-84
2021/08/05 02:59:07;;;;;;;3.80;3.40;;;;;;;17.93;75.25;99903.41;5031938;28;20933;-84
2021/08/05 03:01:34;;;;;;;3.60;3.30;;;;;;;17.89;75.33;99902.41;5031546;28;20399;-84
2021/08/05 03:03:59;;;;;;;5.90;3.95;;;;;;;17.90;75.32;99890.34;5031764;28;20395;-84
2021/08/05 03:06:27;;;;;;;6.27;3.80;;;;;;;17.91;75.34;99890.03;5029933;28;20414;-84
2021/08/05 03:08:53;;;;;;;4.53;3.40;;;;;;;17.94;75.31;99883.94;5030913;28;20414;-84
2021/08/05 03:11:19;;;;;;;3.50;3.30;;;;;;;17.99;75.11;99888.47;5030244;28;20403;-84
2021/08/05 03:13:44;;;;;;;4.15;3.83;;;;;;;17.97;75.15;99882.50;5031766;28;20414;-84
2021/08/05 03:16:11;;;;;;;4.57;3.80;;;;;;;17.95;75.31;99884.72;5033301;28;20482;-84
2021/08/05 03:18:36;;;;;;;5.03;3.92;;;;;;;17.94;75.13;99881.19;5030297;28;20417;-84
2021/08/05 03:21:02;;;;;;;5.20;3.58;;;;;;;17.96;75.21;99883.63;5045796;28;20785;-84
2021/08/05 03:23:27;;;;;;;4.50;3.60;;;;;;;17.94;75.09;99877.63;5027125;28;20413;-84
2021/08/05 03:25:52;;;;;;;4.50;4.10;;;;;;;17.92;75.34;99879.88;5049434;28;20425;-84
2021/08/05 03:28:18;;;;;;;6.50;4.15;;;;;;;17.84;75.44;99873.19;5051038;28;20482;-84
2021/08/05 03:30:43;;;;;;;4.13;3.57;;;;;;;17.82;75.53;99877.34;5029449;28;20393;-84
2021/08/05 03:33:09;;;;;;;3.78;3.55;;;;;;;17.84;75.52;99875.13;5048354;28;20401;-84
2021/08/05 03:35:34;;;;;;;4.63;3.70;;;;;;;17.80;75.48;99894.09;5042265;28;20403;-84
2021/08/05 03:38:00;;;;;;;5.03;3.97;;;;;;;17.81;75.82;99882.03;5015196;28;20401;-84
2021/08/05 03:40:25;;;;;;;3.87;3.57;;;;;;;17.84;75.71;99888.81;5035475;28;20395;-84
2021/08/05 03:42:50;;;;;;;4.60;4.20;;;;;;;17.82;75.53;99889.13;5034765;28;20486;-84
2021/08/05 03:45:16;;;;;;;4.50;4.15;;;;;;;17.74;75.73;99889.84;5034522;28;20411;-84
2021/08/05 03:47:41;;;;;;;5.90;4.47;;;;;;;17.73;75.88;99887.41;5035514;28;20406;-84
2021/08/05 03:50:07;;;;;;;6.87;5.97;;;;;;;17.72;75.47;99881.09;5034029;28;20391;-84
2021/08/05 03:52:32;;;;;;;5.95;5.25;;;;;;;17.74;75.65;99889.03;5034026;28;20407;-84
2021/08/05 03:54:57;;;;;;;6.87;5.00;;;;;;;17.70;75.69;99888.00;5032816;28;20936;-84
2021/08/05 03:57:22;;;;;;;5.60;4.63;;;;;;;17.69;75.66;99886.38;5034221;28;20423;-84
2021/08/05 03:59:48;;;;;;;5.33;4.70;;;;;;;17.71;75.89;99884.16;5034289;28;20403;-84
2021/08/05 04:02:13;;;;;;;6.53;4.20;;;;;;;17.76;75.85;99895.81;5032252;28;20418;-85
2021/08/05 04:04:38;;;;;;;5.53;4.33;;;;;;;17.76;75.62;99879.38;5042703;28;20420;-85
2021/08/05 04:07:05;;;;;;;6.70;3.80;;;;;;;17.73;75.76;99887.41;5020367;28;20514;-84
2021/08/05 04:09:31;;;;;;;4.60;3.90;;;;;;;17.71;75.57;99890.47;5054649;28;20420;-84
2021/08/05 04:11:56;;;;;;;5.80;3.40;;;;;;;17.70;75.60;99891.56;5051783;28;20417;-84
2021/08/05 04:14:21;;;;;;;8.00;4.13;;;;;;;17.62;75.74;99890.34;5034036;28;20445;-84
2021/08/05 04:16:46;;;;;;;4.57;3.60;;;;;;;17.58;75.88;99896.75;5034345;28;20817;-84
2021/08/05 04:19:12;;;;;;;4.43;3.73;;;;;;;17.57;76.15;99889.66;5017056;28;20807;-84
2021/08/05 04:21:37;;;;;;;4.50;3.87;;;;;;;17.54;76.08;99887.50;5017618;28;20391;-84
2021/08/05 04:24:02;;;;;;;5.57;4.07;;;;;;;17.48;76.18;99888.72;5033543;28;20402;-83
2021/08/05 04:26:28;;;;;;;5.90;4.07;;;;;;;17.41;76.53;99880.09;5034460;28;20422;-83
2021/08/05 04:28:53;;;;;;;6.73;4.10;;;;;;;17.38;76.65;99892.47;5016849;28;20435;-84
2021/08/05 04:31:18;;;;;;;7.10;3.90;;;;;;;17.41;76.59;99882.81;5034564;28;20409;-84
2021/08/05 04:33:44;;;;;;;4.40;4.00;;;;;;;17.43;76.46;99886.06;5033473;28;20816;-84
2021/08/05 04:36:09;;;;;;;6.90;4.10;;;;;;;17.47;76.38;99884.34;5033165;28;20945;-84
2021/08/05 04:38:35;;;;;;;4.00;3.67;;;;;;;17.47;76.43;99881.59;5034713;28;20440;-84
2021/08/05 04:41:00;;;;;;;7.20;4.10;;;;;;;17.49;76.27;99869.22;5034384;28;20399;-84
2021/08/05 04:43:25;;;;;;;3.87;3.47;;;;;;;17.49;76.31;99882.09;5033541;28;20901;-84
2021/08/05 04:45:50;;;;;;;4.37;3.93;;;;;;;17.47;76.45;99887.06;5033598;28;20490;-84
2021/08/05 04:48:16;;;;;;;5.47;3.87;;;;;;;17.46;76.54;99886.25;4999333;28;20415;-84
2021/08/05 04:50:43;;;;;;;5.40;4.23;;;;;;;17.47;76.58;99887.06;5032999;28;20398;-84
2021/08/05 04:53:09;;;;;;;6.82;3.83;;;;;;;17.44;76.73;99880.28;5032536;28;20648;-84
2021/08/05 04:55:35;;;;;;;7.65;4.28;;;;;;;17.49;76.73;99880.16;5041465;28;20480;-84
2021/08/05 04:58:03;;;;;;;7.90;4.00;;;;;;;17.49;76.79;99876.63;5032178;28;20869;-84
2021/08/05 05:00:34;;;;;;;5.35;3.80;;;;;;;17.50;76.93;99875.50;5016052;28;20399;-84
2021/08/05 05:03:00;;;;;;;4.63;4.13;;;;;;;17.55;76.72;99878.97;5032827;28;20422;-84
2021/08/05 05:05:26;;;;;;;6.13;4.03;;;;;;;17.54;76.92;99876.53;5033706;28;20387;-84
2021/08/05 05:07:52;;;;;;;3.78;3.30;;;;;;;17.53;76.82;99875.72;5034057;28;20723;-84
2021/08/05 05:10:18;;;;;;;6.07;3.63;;;;;;;17.58;76.90;99883.06;5032228;28;20407;-84
2021/08/05 05:12:44;;;;;;;4.03;3.73;;;;;;;17.55;77.01;99883.63;5032636;28;20403;-84
2021/08/05 05:15:11;;;;;;;3.83;3.40;;;;;;;17.62;77.14;99879.38;5032853;28;20747;-84
2021/08/05 05:17:38;;;;;;;8.73;3.38;;;;;;;17.75;76.63;99882.44;5033262;28;20410;-84
2021/08/05 05:20:05;;;;;;;4.25;3.28;;;;;;;17.87;75.81;99880.81;5033549;28;20401;-83
2021/08/05 05:22:31;;;;;;;3.90;3.38;;;;;;;17.88;75.91;99879.66;5032257;28;20395;-84
2021/08/05 05:24:56;;;;;;;3.80;3.50;;;;;;;17.84;76.01;99886.91;5032735;28;20411;-84
2021/08/05 05:27:22;;;;;;;4.25;3.38;;;;;;;17.88;75.92;99887.09;5033527;28;20975;-84
2021/08/05 05:29:48;;;;;;;22.02;17.92;;;;;;;17.99;75.29;99883.81;5032512;28;20395;-84
2021/08/05 05:32:13;;;;;;;4.10;3.50;;;;;;;18.10;75.35;99885.22;5039933;28;20756;-84
2021/08/05 05:34:38;;;;;;;5.50;2.97;;;;;;;18.18;74.94;99885.63;5033502;28;20407;-84
2021/08/05 05:37:04;;;;;;;4.07;3.33;;;;;;;18.20;74.93;99881.44;5032688;28;20793;-84
2021/08/05 05:39:30;;;;;;;5.05;2.78;;;;;;;18.24;74.51;99876.97;5033147;28;20395;-84
2021/08/05 05:41:56;;;;;;;4.32;3.17;;;;;;;18.27;74.26;99870.84;5033248;28;20386;-84
2021/08/05 05:44:21;;;;;;;5.93;3.00;;;;;;;18.29;74.36;99876.03;5032116;28;20442;-86
2021/08/05 05:46:46;;;;;;;4.10;3.60;;;;;;;18.32;73.91;99878.13;5034969;28;20422;-85
2021/08/05 05:49:11;;;;;;;3.27;2.63;;;;;;;18.32;74.45;99869.91;5014492;28;20485;-85
2021/08/05 05:51:37;;;;;;;3.20;2.90;;;;;;;18.33;74.45;99872.34;5032709;28;20399;-84
2021/08/05 05:54:03;;;;;;;3.08;2.78;;;;;;;18.38;74.41;99874.97;5030799;28;20407;-84
2021/08/05 05:56:28;;;;;;;3.20;2.90;;;;;;;18.43;73.80;99882.28;5014635;28;20937;-85
2021/08/05 05:58:53;;;;;;;4.37;2.80;;;;;;;18.49;73.49;99870.06;5026600;28;20414;-86
2021/08/05 06:01:18;;;;;;;3.57;2.47;;;;;;;18.42;74.08;99872.41;5031988;28;20425;-83
2021/08/05 06:03:44;;;;;;;3.37;2.67;;;;;;;18.34;74.34;99871.22;5032141;28;20419;-86
2021/08/05 06:06:10;;;;;;;5.68;2.63;;;;;;;18.41;74.32;99868.03;5014603;28;20411;-87
2021/08/05 06:08:35;;;;;;;3.00;2.80;;;;;;;18.45;74.24;99877.28;5032104;28;20447;-83
2021/08/05 06:11:01;;;;;;;3.33;2.80;;;;;;;18.45;74.18;99872.59;5034871;28;20876;-84
2021/08/05 06:13:26;;;;;;;2.83;2.50;;;;;;;18.39;74.09;99873.03;5018678;28;20426;-85
2021/08/05 06:15:51;;;;;;;3.03;2.80;;;;;;;18.36;74.48;99873.66;5031890;28;20756;-84
2021/08/05 06:18:16;;;;;;;2.80;2.60;;;;;;;18.46;74.13;99868.75;5030612;28;20411;-84
2021/08/05 06:20:42;;;;;;;3.53;2.87;;;;;;;18.59;73.55;99870.66;5039142;28;20405;-86
2021/08/05 06:23:08;;;;;;;4.07;2.20;;;;;;;18.62;73.47;99871.97;5031403;28;20406;-85
2021/08/05 06:25:35;;;;;;;3.25;3.00;;;;;;;18.71;73.03;99875.56;5028829;28;20928;-86
2021/08/05 06:28:01;;;;;;;3.20;2.55;;;;;;;18.83;72.63;99869.53;5014272;28;20985;-86
2021/08/05 06:30:26;;;;;;;2.95;2.70;;;;;;;18.89;72.34;99871.81;5027468;28;20415;-85
2021/08/05 06:32:52;;;;;;;2.33;2.20;;;;;;;18.91;72.19;99866.00;5029782;28;20403;-85
2021/08/05 06:35:18;;;;;;;2.20;2.10;;;;;;;18.99;71.41;99870.75;5016858;28;20422;-86
2021/08/05 06:37:44;;;;;;;4.00;2.15;;;;;;;18.92;71.69;99867.63;5031283;28;20902;-84
2021/08/05 06:40:10;;;;;;;2.95;2.42;;;;;;;18.97;71.44;99862.81;5030287;28;20399;-87
2021/08/05 06:42:36;;;;;;;2.95;2.40;;;;;;;19.02;71.27;99862.69;4998122;28;20948;-84
2021/08/05 06:45:04;;;;;;;5.22;2.55;;;;;;;18.97;71.18;99865.56;5014485;28;20403;-85
2021/08/05 06:47:30;;;;;;;2.38;2.20;;;;;;;19.02;70.83;99859.94;5029947;28;20419;-86
2021/08/05 06:49:56;;;;;;;2.22;2.13;;;;;;;19.05;70.88;99862.06;5031108;28;20406;-85
2021/08/05 06:52:22;;;;;;;2.30;2.10;;;;;;;19.11;70.39;99863.53;5031008;28;20415;-84
2021/08/05 06:54:48;;;;;;;2.40;2.30;;;;;;;19.22;69.99;99863.28;5032280;28;20490;-85
2021/08/05 06:57:14;;;;;;;2.20;2.10;;;;;;;19.21;69.67;99856.97;5031565;28;20486;-86
2021/08/05 06:59:39;;;;;;;5.47;3.10;;;;;;;19.30;69.14;99859.78;5030583;28;20482;-86
2021/08/05 07:02:04;;;;;;;2.30;2.17;;;;;;;19.37;69.60;99868.34;5012236;28;20770;-85
2021/08/05 07:04:30;;;;;;;2.00;1.90;;;;;;;19.36;69.51;99864.00;5030175;28;20445;-82
2021/08/05 07:06:56;;;;;;;2.30;2.10;;;;;;;19.46;68.45;99867.28;5013192;28;20415;-83
2021/08/05 07:09:21;;;;;;;3.42;2.35;;;;;;;19.43;68.68;99873.41;5011861;28;20418;-84
2021/08/05 07:11:49;;;;;;;2.40;2.20;;;;;;;19.48;68.78;99866.97;5029625;28;20398;-84
2021/08/05 07:14:15;;;;;;;2.90;1.90;;;;;;;19.52;68.53;99866.03;5013643;28;20415;-85
2021/08/05 07:16:40;;;;;;;1.80;1.63;;;;;;;19.51;68.16;99858.91;5031583;28;20391;-86
2021/08/05 07:19:05;;;;;;;2.20;2.00;;;;;;;19.59;67.77;99862.81;5030353;28;20406;-82
2021/08/05 07:21:31;;;;;;;2.27;2.17;;;;;;;19.64;67.52;99859.91;5031280;28;20406;-84
2021/08/05 07:23:56;;;;;;;2.17;2.07;;;;;;;19.73;66.96;99866.22;5031223;28;20387;-84
2021/08/05 07:26:21;;;;;;;2.03;1.70;;;;;;;19.88;67.19;99871.28;5005346;28;20418;-86
2021/08/05 07:28:47;;;;;;;2.35;2.20;;;;;;;19.96;66.53;99866.91;5031066;28;20419;-83
2021/08/05 07:31:12;;;;;;;2.10;2.00;;;;;;;19.99;66.11;99860.81;5030357;28;20962;-82
2021/08/05 07:33:37;;;;;;;2.40;2.20;;;;;;;20.02;66.13;99862.91;5030737;28;20403;-86
2021/08/05 07:36:03;;;;;;;3.50;2.20;;;;;;;20.08;66.13;99859.69;5031228;28;20822;-88
2021/08/05 07:38:31;;;;;;;2.67;1.80;;;;;;;20.09;66.62;99857.72;5030161;28;20718;-87
2021/08/05 07:41:01;;;;;;;2.47;2.38;;;;;;;20.12;66.17;99862.59;5030024;28;20477;-89
2021/08/05 07:43:27;;;;;;;2.00;1.90;;;;;;;20.01;66.20;99866.78;5014107;28;20870;-88
2021/08/05 07:45:52;;;;;;;2.20;2.10;;;;;;;20.05;66.28;99856.75;5023107;28;20461;-87
2021/08/05 07:48:17;;;;;;;2.27;2.17;;;;;;;20.04;66.78;99864.19;5030312;28;20450;-87
2021/08/05 07:50:43;;;;;;;2.50;2.33;;;;;;;20.07;66.56;99862.75;5029617;28;20419;-86
2021/08/05 07:53:08;;;;;;;2.47;2.38;;;;;;;20.04;65.93;99868.88;5031333;28;20487;-83
2021/08/05 07:55:33;;;;;;;2.00;1.90;;;;;;;20.07;65.98;99866.31;5030555;28;20423;-84
2021/08/05 07:57:59;;;;;;;2.57;2.00;;;;;;;20.04;66.52;99858.69;5029657;28;20453;-85
2021/08/05 08:00:24;;;;;;;1.97;1.87;;;;;;;20.01;67.22;99855.78;5028861;28;20444;-86
2021/08/05 08:02:49;;;;;;;2.40;2.20;;;;;;;19.89;67.70;99852.84;5026349;28;20503;-89
2021/08/05 08:05:15;;;;;;;2.53;2.33;;;;;;;19.86;68.02;99857.03;5012762;28;20426;-87
2021/08/05 08:07:42;;;;;;;2.43;2.23;;;;;;;19.88;67.75;99853.97;5028925;28;20418;-88
2021/08/05 08:10:09;;;;;;;2.78;2.42;;;;;;;19.91;67.83;99854.16;5024495;28;20413;-87
2021/08/05 08:12:34;;;;;;;2.67;2.20;;;;;;;19.92;67.24;99855.75;5029275;28;20894;-89
2021/08/05 08:15:00;;;;;;;2.67;2.33;;;;;;;19.98;66.87;99851.75;5027902;28;20477;-88
2021/08/05 08:17:25;;;;;;;2.70;2.47;;;;;;;20.00;67.38;99841.22;5029698;28;20464;-86
2021/08/05 08:19:51;;;;;;;2.42;2.10;;;;;;;20.06;67.03;99841.84;5030276;28;20774;-89
2021/08/05 08:22:16;;;;;;;1.83;1.73;;;;;;;20.06;66.10;99836.34;5030765;28;20415;-89
2021/08/05 08:24:42;;;;;;;1.83;1.77;;;;;;;20.12;66.26;99838.63;5031908;28;20426;-90
2021/08/05 08:27:07;;;;;;;1.93;1.83;;;;;;;20.15;65.60;99834.44;5032854;28;20419;-89
2021/08/05 08:29:32;;;;;;;2.22;2.13;;;;;;;20.15;65.22;99832.47;5033504;28;20900;-89
2021/08/05 08:31:58;;;;;;;2.77;1.77;;;;;;;20.31;65.23;99834.78;5034379;28;20384;-89
2021/08/05 08:34:23;;;;;;;1.87;1.77;;;;;;;20.43;64.86;99837.69;5016648;28;20414;-89
2021/08/05 08:36:48;;;;;;;1.80;1.70;;;;;;;20.45;64.28;99833.47;5033538;28;20407;-89
2021/08/05 08:39:14;;;;;;;1.70;1.70;;;;;;;20.51;63.58;99831.38;5032647;28;20497;-89
2021/08/05 08:41:41;;;;;;;1.60;1.60;;;;;;;20.59;63.69;99839.63;5029549;28;20418;-87
2021/08/05 08:44:08;;;;;;;2.00;1.90;;;;;;;20.76;64.05;99837.97;5027851;28;20400;-87
2021/08/05 08:46:34;;;;;;;2.08;1.98;;;;;;;20.94;63.50;99829.34;5012934;28;20409;-88
2021/08/05 08:49:00;;;;;;;2.00;1.90;;;;;;;21.14;63.89;99836.13;5013098;28;20733;-88
2021/08/05 08:51:29;;;;;;;1.90;1.80;;;;;;;21.35;61.60;99831.47;5031194;28;20771;-88
2021/08/05 08:53:55;;;;;;;2.30;2.20;;;;;;;21.44;61.83;99837.75;5044518;28;20396;-88
2021/08/05 08:56:22;;;;;;;16.83;4.38;;;;;;;21.56;60.38;99832.38;5052921;28;20418;-91
2021/08/05 08:58:48;;;;;;;2.10;1.90;;;;;;;21.75;60.35;99834.69;5051424;28;20471;-89
2021/08/05 09:01:15;;;;;;;2.40;1.93;;;;;;;22.02;60.04;99819.59;5015967;28;20850;-89
2021/08/05 09:03:40;;;;;;;1.90;1.63;;;;;;;22.29;59.41;99818.25;5033956;28;20454;-89
2021/08/05 09:06:06;;;;;;;2.80;1.77;;;;;;;22.34;58.09;99818.84;5033817;28;20445;-88
2021/08/05 09:08:31;;;;;;;1.83;1.73;;;;;;;22.23;58.55;99829.47;5032319;28;20454;-89
2021/08/05 09:10:57;;;;;;;1.67;1.57;;;;;;;22.06;58.16;99818.56;5030536;28;20818;-90
2021/08/05 09:13:23;;;;;;;1.92;1.83;;;;;;;22.04;59.28;99822.81;5030870;28;20549;-87
2021/08/05 09:15:49;;;;;;;1.87;1.60;;;;;;;22.00;59.67;99822.69;5033109;28;20438;-89
2021/08/05 09:18:38;;;;;;;1.95;1.85;;;;;;;21.94;59.41;99821.28;5032924;28;20430;-90
2021/08/05 09:21:13;;;;;;;2.70;2.08;;;;;;;21.92;58.79;99812.53;5031868;28;20952;-88
2021/08/05 09:24:06;;;;;;;3.88;1.90;;;;;;;21.99;58.98;99810.03;5031337;28;20418;-88
2021/08/05 09:26:39;;;;;;;2.28;2.17;;;;;;;22.06;58.47;99820.56;5033271;28;20913;-89
2021/08/05 09:29:04;;;;;;;1.83;1.83;;;;;;;22.19;58.00;99812.00;5032721;28;20814;-88
2021/08/05 09:31:31;;;;;;;2.40;2.20;;;;;;;22.40;59.42;99805.63;5032165;28;20399;-89
2021/08/05 09:34:08;;;;;;;3.65;2.00;;;;;;;22.60;58.71;99807.53;5031773;28;20762;-88
2021/08/05 09:36:35;;;;;;;2.03;1.75;;;;;;;22.79;58.48;99812.59;5027777;28;20415;-90
2021/08/05 09:39:01;;;;;;;4.75;1.83;;;;;;;23.00;58.14;99808.59;5014753;28;20492;-90
2021/08/05 09:41:26;;;;;;;2.20;2.03;;;;;;;23.27;57.23;99802.44;5033316;28;20790;-90
2021/08/05 09:44:00;;;;;;;4.07;2.07;;;;;;;23.40;57.32;99803.25;5031787;28;20407;-89
2021/08/05 09:46:31;;;;;;;22.30;5.50;;;;;;;23.42;57.01;99802.91;5009779;28;20415;-91
2021/08/05 09:48:57;;;;;;;1.77;1.58;;;;;;;23.38;56.79;99811.03;5032430;28;20473;-90
2021/08/05 09:51:22;;;;;;;1.50;1.50;;;;;;;23.17;56.37;99802.88;5027772;28;20391;-88
2021/08/05 09:53:56;;;;;;;1.70;1.60;;;;;;;23.05;55.13;99797.31;5032790;28;20910;-90
2021/08/05 09:56:22;;;;;;;1.80;1.70;;;;;;;22.94;55.28;99798.94;5015393;28;20414;-90
2021/08/05 09:58:48;;;;;;;1.88;1.77;;;;;;;22.85;55.73;99798.22;5032080;28;20384;-89
2021/08/05 10:01:15;;;;;;;2.13;1.90;;;;;;;22.74;57.06;99797.84;5033193;28;20398;-90
2021/08/05 10:03:40;;;;;;;1.77;1.67;;;;;;;22.77;57.29;99792.78;5014683;28;20403;-89
2021/08/05 10:06:07;;;;;;;2.30;1.70;;;;;;;22.81;57.73;99794.53;5017301;28;20745;-89
2021/08/05 10:08:33;;;;;;;2.28;1.65;;;;;;;22.86;57.97;99794.28;5009874;28;20403;-85
2021/08/05 10:10:58;;;;;;;2.00;1.70;;;;;;;22.95;57.87;99791.44;5031710;28;20392;-89
2021/08/05 10:13:27;;;;;;;2.07;1.80;;;;;;;23.05;56.88;99794.56;5031175;28;20492;-90
2021/08/05 10:15:53;;;;;;;3.23;1.40;;;;;;;23.29;56.92;99788.25;5014854;28;20498;-90
2021/08/05 10:18:19;;;;;;;2.88;1.58;;;;;;;23.58;54.46;99785.25;5032260;28;20498;-88
2021/08/05 10:20:44;;;;;;;1.98;1.67;;;;;;;23.59;54.84;99788.84;5030325;28;20470;-84
2021/08/05 10:23:10;;;;;;;4.60;1.60;;;;;;;23.64;54.65;99788.63;5031232;28;20431;-90
2021/08/05 10:25:36;;;;;;;2.00;1.63;;;;;;;23.83;54.72;99782.47;5029286;28;20407;-91
2021/08/05 10:28:04;;;;;;;2.88;2.40;;;;;;;23.96;53.98;99776.56;5032197;28;20407;-91
2021/08/05 10:30:30;;;;;;;1.52;1.40;;;;;;;24.51;51.90;99774.97;5031246;28;20409;-91
2021/08/05 10:32:56;;;;;;;1.73;1.60;;;;;;;24.88;51.15;99772.81;5014467;28;20410;-89
2021/08/05 10:35:23;;;;;;;1.75;1.60;;;;;;;24.97;50.10;99765.13;5032143;28;20407;-88
2021/08/05 10:37:49;;;;;;;1.47;1.30;;;;;;;24.84;49.45;99758.06;5031682;28;20469;-90
2021/08/05 10:40:15;;;;;;;1.58;1.48;;;;;;;24.67;50.55;99768.31;5032560;28;20407;-87
2021/08/05 10:42:43;;;;;;;3.25;2.05;;;;;;;24.70;50.57;99758.47;5013742;28;20396;-92
2021/08/05 10:45:09;;;;;;;1.40;1.40;;;;;;;24.79;50.99;99759.94;5012979;28;20407;-88
2021/08/05 10:47:34;;;;;;;1.10;1.10;;;;;;;24.68;52.21;99764.38;5030820;28;20422;-90
2021/08/05 10:50:17;;;;;;;1.38;1.38;;;;;;;24.59;51.48;99744.34;5029473;28;20414;-90
2021/08/05 10:52:44;;;;;;;1.37;1.37;;;;;;;24.49;51.89;99750.41;5021575;28;20439;-89
2021/08/05 10:55:16;;;;;;;2.00;1.40;;;;;;;24.48;51.69;99743.25;5032160;28;20402;-89
2021/08/05 10:57:42;;;;;;;1.38;1.35;;;;;;;24.46;51.94;99742.81;5031470;28;20407;-89
2021/08/05 11:00:14;;;;;;;2.20;1.40;;;;;;;24.62;51.68;99746.41;5029865;28;20457;-90
2021/08/05 11:02:43;;;;;;;1.20;1.08;;;;;;;24.75;51.46;99742.41;5032017;28;20872;-89
2021/08/05 11:05:10;;;;;;;1.40;1.40;;;;;;;24.67;51.44;99737.81;5013940;28;20426;-90
2021/08/05 11:07:36;;;;;;;1.95;1.60;;;;;;;24.30;52.30;99738.41;5013304;28;20438;-90
2021/08/05 11:10:16;;;;;;;2.30;1.27;;;;;;;24.02;52.66;99743.88;5014199;28;20409;-89
2021/08/05 11:12:46;;;;;;;1.10;1.10;;;;;;;23.92;53.66;99734.13;5031306;28;20732;-88
2021/08/05 11:15:26;;;;;;;1.75;1.35;;;;;;;24.09;51.69;99735.78;5013794;28;20403;-90
2021/08/05 11:18:07;;;;;;;3.63;1.80;;;;;;;24.21;52.83;99731.03;5019992;28;20415;-89
2021/08/05 11:20:34;;;;;;;1.63;1.20;;;;;;;24.57;52.40;99720.91;5031074;28;20395;-88
2021/08/05 11:22:59;;;;;;;1.30;1.30;;;;;;;24.99;51.34;99715.72;5028607;28;20425;-88
2021/08/05 11:25:25;;;;;;;3.42;1.20;;;;;;;26.05;49.73;99710.59;5030510;28;20419;-89
2021/08/05 11:28:29;;;;;;;1.90;1.10;;;;;;;26.75;45.49;99707.56;5011409;28;20886;-89
2021/08/05 11:31:00;;;;;;;1.40;1.07;;;;;;;26.52;45.50;99701.19;5030843;28;20498;-88
2021/08/05 11:33:41;;;;;;;1.40;1.30;;;;;;;26.15;47.40;99698.06;5013342;28;20402;-85